Armstrong, Texas
Current Conditions -  °F | °C
As of 10:55 AM on Thursday 30 Oct 2014 (Local Time) from KBKS Reporting Station
Clear Clear  
Wind Chill: 25°   Ceiling: Unl
Heat Index: 26°   Visibility: 10mi
Dew Point: 21°   Wind: 3mph
Humidity: 79%   Direction: 120°ESE
Pressure: 30.11"   Gusts: NA
Location:  26.92°N, 97.79°W
Report Text: KBKS 301555Z AUTO 12003KT 10SM CLR 25/21 A3011 RMK AO1 T02500211
Loading
Personal Weather Stations






























Interactive Weather Map
Tropical Storm Tracking
New forecast layout! Learn more

10-Day Weather Forecast

Advertisements
Track Severe Weather on mobile